sensor_id;sensor_type;location;lat;lon;timestamp;P1;durP1;ratioP1;P2;durP2;ratioP2
72201;SDS011;60105;54.956;73.412;2023-06-14T00:03:00;9.80;;;5.82;;
72201;SDS011;60105;54.956;73.412;2023-06-14T00:06:01;8.33;;;5.33;;
72201;SDS011;60105;54.956;73.412;2023-06-14T00:09:03;9.00;;;5.38;;
72201;SDS011;60105;54.956;73.412;2023-06-14T00:12:05;11.07;;;5.63;;
72201;SDS011;60105;54.956;73.412;2023-06-14T00:15:07;10.27;;;6.25;;
72201;SDS011;60105;54.956;73.412;2023-06-14T00:18:10;9.43;;;6.03;;
72201;SDS011;60105;54.956;73.412;2023-06-14T00:21:50;19.35;;;7.10;;
72201;SDS011;60105;54.956;73.412;2023-06-14T00:24:52;10.27;;;5.82;;
72201;SDS011;60105;54.956;73.412;2023-06-14T00:27:56;13.00;;;6.07;;
72201;SDS011;60105;54.956;73.412;2023-06-14T00:30:57;11.47;;;6.27;;
72201;SDS011;60105;54.956;73.412;2023-06-14T00:33:59;10.35;;;5.97;;
72201;SDS011;60105;54.956;73.412;2023-06-14T00:37:01;7.25;;;4.68;;
72201;SDS011;60105;54.956;73.412;2023-06-14T00:40:02;10.77;;;5.67;;
72201;SDS011;60105;54.956;73.412;2023-06-14T00:43:06;7.70;;;4.93;;
72201;SDS011;60105;54.956;73.412;2023-06-14T00:46:50;7.84;;;5.40;;
72201;SDS011;60105;54.956;73.412;2023-06-14T00:49:53;14.85;;;6.05;;
72201;SDS011;60105;54.956;73.412;2023-06-14T00:52:56;11.23;;;6.27;;
72201;SDS011;60105;54.956;73.412;2023-06-14T00:55:59;9.07;;;5.38;;
72201;SDS011;60105;54.956;73.412;2023-06-14T00:59:01;9.97;;;5.70;;
72201;SDS011;60105;54.956;73.412;2023-06-14T01:02:03;11.70;;;5.13;;
72201;SDS011;60105;54.956;73.412;2023-06-14T01:05:04;10.13;;;6.32;;
72201;SDS011;60105;54.956;73.412;2023-06-14T01:14:51;13.30;;;6.40;;
72201;SDS011;60105;54.956;73.412;2023-06-14T01:17:56;13.98;;;5.40;;
72201;SDS011;60105;54.956;73.412;2023-06-14T01:21:04;8.43;;;5.47;;
72201;SDS011;60105;54.956;73.412;2023-06-14T01:24:07;8.83;;;6.00;;
72201;SDS011;60105;54.956;73.412;2023-06-14T01:27:11;10.60;;;6.13;;
72201;SDS011;60105;54.956;73.412;2023-06-14T01:30:17;11.30;;;6.15;;
72201;SDS011;60105;54.956;73.412;2023-06-14T01:33:19;12.73;;;5.90;;
72201;SDS011;60105;54.956;73.412;2023-06-14T01:36:50;9.40;;;5.95;;
72201;SDS011;60105;54.956;73.412;2023-06-14T01:39:55;12.73;;;5.90;;
72201;SDS011;60105;54.956;73.412;2023-06-14T01:42:57;9.52;;;4.93;;
72201;SDS011;60105;54.956;73.412;2023-06-14T01:45:59;11.52;;;5.22;;
72201;SDS011;60105;54.956;73.412;2023-06-14T01:49:02;6.43;;;4.13;;
72201;SDS011;60105;54.956;73.412;2023-06-14T01:52:05;7.27;;;3.57;;
72201;SDS011;60105;54.956;73.412;2023-06-14T01:55:07;8.93;;;4.33;;
72201;SDS011;60105;54.956;73.412;2023-06-14T01:58:11;8.30;;;4.20;;
72201;SDS011;60105;54.956;73.412;2023-06-14T02:01:50;11.15;;;4.47;;
72201;SDS011;60105;54.956;73.412;2023-06-14T02:04:51;7.90;;;4.22;;
72201;SDS011;60105;54.956;73.412;2023-06-14T02:07:53;8.97;;;3.80;;
72201;SDS011;60105;54.956;73.412;2023-06-14T02:10:54;7.95;;;3.78;;
72201;SDS011;60105;54.956;73.412;2023-06-14T02:13:57;10.63;;;4.10;;
72201;SDS011;60105;54.956;73.412;2023-06-14T02:17:00;6.83;;;3.97;;
72201;SDS011;60105;54.956;73.412;2023-06-14T02:20:03;8.55;;;4.30;;
72201;SDS011;60105;54.956;73.412;2023-06-14T02:23:06;6.90;;;3.30;;
72201;SDS011;60105;54.956;73.412;2023-06-14T02:26:18;7.65;;;3.32;;
72201;SDS011;60105;54.956;73.412;2023-06-14T02:29:19;6.47;;;3.63;;
72201;SDS011;60105;54.956;73.412;2023-06-14T02:32:23;9.40;;;4.10;;
72201;SDS011;60105;54.956;73.412;2023-06-14T02:35:24;9.02;;;3.58;;
72201;SDS011;60105;54.956;73.412;2023-06-14T02:38:27;5.70;;;3.43;;
72201;SDS011;60105;54.956;73.412;2023-06-14T02:44:51;7.53;;;3.38;;
72201;SDS011;60105;54.956;73.412;2023-06-14T02:47:53;7.15;;;3.15;;
72201;SDS011;60105;54.956;73.412;2023-06-14T02:50:56;9.17;;;4.23;;
72201;SDS011;60105;54.956;73.412;2023-06-14T02:53:57;6.63;;;3.30;;
72201;SDS011;60105;54.956;73.412;2023-06-14T02:56:59;8.43;;;3.50;;
72201;SDS011;60105;54.956;73.412;2023-06-14T03:00:00;7.38;;;4.55;;
72201;SDS011;60105;54.956;73.412;2023-06-14T03:03:04;7.47;;;4.20;;
72201;SDS011;60105;54.956;73.412;2023-06-14T03:06:50;9.34;;;3.90;;
72201;SDS011;60105;54.956;73.412;2023-06-14T03:09:54;6.50;;;3.70;;
72201;SDS011;60105;54.956;73.412;2023-06-14T03:12:55;6.20;;;3.20;;
72201;SDS011;60105;54.956;73.412;2023-06-14T03:15:57;8.73;;;4.00;;
72201;SDS011;60105;54.956;73.412;2023-06-14T03:19:01;8.15;;;4.15;;
72201;SDS011;60105;54.956;73.412;2023-06-14T03:22:05;9.90;;;3.57;;
72201;SDS011;60105;54.956;73.412;2023-06-14T03:25:08;8.68;;;3.45;;
72201;SDS011;60105;54.956;73.412;2023-06-14T03:28:12;6.15;;;3.30;;
72201;SDS011;60105;54.956;73.412;2023-06-14T03:31:57;5.45;;;3.53;;
72201;SDS011;60105;54.956;73.412;2023-06-14T03:35:10;6.75;;;3.30;;
72201;SDS011;60105;54.956;73.412;2023-06-14T03:38:18;5.32;;;3.20;;
72201;SDS011;60105;54.956;73.412;2023-06-14T03:41:50;6.55;;;3.30;;
72201;SDS011;60105;54.956;73.412;2023-06-14T03:44:51;6.15;;;3.85;;
72201;SDS011;60105;54.956;73.412;2023-06-14T03:47:55;5.35;;;3.60;;
72201;SDS011;60105;54.956;73.412;2023-06-14T03:50:58;6.63;;;3.33;;
72201;SDS011;60105;54.956;73.412;2023-06-14T03:54:02;7.95;;;3.65;;
72201;SDS011;60105;54.956;73.412;2023-06-14T03:57:03;8.03;;;4.13;;
72201;SDS011;60105;54.956;73.412;2023-06-14T04:00:06;16.47;;;4.37;;
72201;SDS011;60105;54.956;73.412;2023-06-14T04:03:15;6.18;;;3.70;;
72201;SDS011;60105;54.956;73.412;2023-06-14T04:06:50;8.52;;;3.80;;
72201;SDS011;60105;54.956;73.412;2023-06-14T04:09:52;8.57;;;3.58;;
72201;SDS011;60105;54.956;73.412;2023-06-14T04:12:53;9.98;;;3.47;;
72201;SDS011;60105;54.956;73.412;2023-06-14T04:15:55;4.90;;;2.80;;
72201;SDS011;60105;54.956;73.412;2023-06-14T04:19:03;7.68;;;3.40;;
72201;SDS011;60105;54.956;73.412;2023-06-14T04:22:04;6.60;;;3.40;;
72201;SDS011;60105;54.956;73.412;2023-06-14T04:25:09;5.53;;;3.50;;
72201;SDS011;60105;54.956;73.412;2023-06-14T04:28:11;5.90;;;3.43;;
72201;SDS011;60105;54.956;73.412;2023-06-14T04:31:50;6.03;;;3.63;;
72201;SDS011;60105;54.956;73.412;2023-06-14T04:34:56;5.65;;;3.35;;
72201;SDS011;60105;54.956;73.412;2023-06-14T04:38:00;6.00;;;3.37;;
72201;SDS011;60105;54.956;73.412;2023-06-14T04:41:02;6.35;;;2.72;;
72201;SDS011;60105;54.956;73.412;2023-06-14T04:44:04;6.43;;;2.83;;
72201;SDS011;60105;54.956;73.412;2023-06-14T04:47:11;7.13;;;3.63;;
72201;SDS011;60105;54.956;73.412;2023-06-14T04:50:13;5.20;;;3.17;;
72201;SDS011;60105;54.956;73.412;2023-06-14T04:53:15;5.33;;;2.90;;
72201;SDS011;60105;54.956;73.412;2023-06-14T04:56:18;6.68;;;3.35;;
72201;SDS011;60105;54.956;73.412;2023-06-14T04:59:19;7.07;;;3.10;;
72201;SDS011;60105;54.956;73.412;2023-06-14T05:02:23;5.53;;;2.80;;
72201;SDS011;60105;54.956;73.412;2023-06-14T05:05:28;7.30;;;3.65;;
72201;SDS011;60105;54.956;73.412;2023-06-14T05:08:29;7.53;;;3.53;;
72201;SDS011;60105;54.956;73.412;2023-06-14T05:14:51;6.75;;;3.35;;
72201;SDS011;60105;54.956;73.412;2023-06-14T05:17:54;6.45;;;3.47;;
72201;SDS011;60105;54.956;73.412;2023-06-14T05:20:56;7.73;;;3.17;;
72201;SDS011;60105;54.956;73.412;2023-06-14T05:23:58;5.63;;;3.20;;
72201;SDS011;60105;54.956;73.412;2023-06-14T05:27:00;5.93;;;3.20;;
72201;SDS011;60105;54.956;73.412;2023-06-14T05:30:01;10.90;;;4.60;;
72201;SDS011;60105;54.956;73.412;2023-06-14T05:33:06;5.03;;;3.23;;
72201;SDS011;60105;54.956;73.412;2023-06-14T05:36:50;8.80;;;3.66;;
72201;SDS011;60105;54.956;73.412;2023-06-14T05:39:51;8.60;;;3.55;;
72201;SDS011;60105;54.956;73.412;2023-06-14T05:42:52;8.82;;;3.58;;
72201;SDS011;60105;54.956;73.412;2023-06-14T05:45:54;6.70;;;3.30;;
72201;SDS011;60105;54.956;73.412;2023-06-14T05:48:55;5.57;;;3.50;;
72201;SDS011;60105;54.956;73.412;2023-06-14T05:51:56;4.50;;;3.13;;
72201;SDS011;60105;54.956;73.412;2023-06-14T05:54:57;5.30;;;3.20;;
72201;SDS011;60105;54.956;73.412;2023-06-14T05:57:59;8.02;;;3.63;;
72201;SDS011;60105;54.956;73.412;2023-06-14T06:01:01;5.17;;;3.43;;
72201;SDS011;60105;54.956;73.412;2023-06-14T06:04:03;8.50;;;3.30;;
72201;SDS011;60105;54.956;73.412;2023-06-14T06:07:04;5.47;;;3.13;;
72201;SDS011;60105;54.956;73.412;2023-06-14T06:10:06;6.57;;;3.60;;
72201;SDS011;60105;54.956;73.412;2023-06-14T06:13:07;5.30;;;3.20;;
72201;SDS011;60105;54.956;73.412;2023-06-14T06:16:50;5.95;;;3.10;;
72201;SDS011;60105;54.956;73.412;2023-06-14T06:19:53;4.90;;;3.17;;
72201;SDS011;60105;54.956;73.412;2023-06-14T06:22:55;6.20;;;3.10;;
72201;SDS011;60105;54.956;73.412;2023-06-14T06:25:56;5.20;;;2.60;;
72201;SDS011;60105;54.956;73.412;2023-06-14T06:28:58;7.07;;;3.60;;
72201;SDS011;60105;54.956;73.412;2023-06-14T06:32:00;7.10;;;3.30;;
72201;SDS011;60105;54.956;73.412;2023-06-14T06:35:02;7.65;;;3.35;;
72201;SDS011;60105;54.956;73.412;2023-06-14T06:38:04;7.83;;;3.30;;
72201;SDS011;60105;54.956;73.412;2023-06-14T06:41:50;6.39;;;3.02;;
72201;SDS011;60105;54.956;73.412;2023-06-14T06:45:01;5.10;;;2.93;;
72201;SDS011;60105;54.956;73.412;2023-06-14T06:48:06;6.40;;;3.30;;
72201;SDS011;60105;54.956;73.412;2023-06-14T06:52:03;6.06;;;2.44;;
72201;SDS011;60105;54.956;73.412;2023-06-14T06:55:05;5.97;;;3.15;;
72201;SDS011;60105;54.956;73.412;2023-06-14T06:58:08;6.88;;;3.30;;
72201;SDS011;60105;54.956;73.412;2023-06-14T07:01:50;6.24;;;3.30;;
72201;SDS011;60105;54.956;73.412;2023-06-14T07:04:51;6.00;;;3.17;;
72201;SDS011;60105;54.956;73.412;2023-06-14T07:07:52;6.63;;;3.30;;
72201;SDS011;60105;54.956;73.412;2023-06-14T07:10:54;6.68;;;3.15;;
72201;SDS011;60105;54.956;73.412;2023-06-14T07:13:56;6.63;;;3.00;;
72201;SDS011;60105;54.956;73.412;2023-06-14T07:16:57;9.07;;;2.90;;
72201;SDS011;60105;54.956;73.412;2023-06-14T07:19:58;5.83;;;2.67;;
72201;SDS011;60105;54.956;73.412;2023-06-14T07:23:01;5.60;;;2.95;;
72201;SDS011;60105;54.956;73.412;2023-06-14T07:26:05;5.63;;;3.55;;
72201;SDS011;60105;54.956;73.412;2023-06-14T07:29:06;8.15;;;3.72;;
72201;SDS011;60105;54.956;73.412;2023-06-14T07:32:08;5.33;;;2.90;;
72201;SDS011;60105;54.956;73.412;2023-06-14T07:35:09;5.43;;;3.17;;
72201;SDS011;60105;54.956;73.412;2023-06-14T07:38:11;7.57;;;2.60;;
72201;SDS011;60105;54.956;73.412;2023-06-14T07:41:50;5.68;;;3.05;;
72201;SDS011;60105;54.956;73.412;2023-06-14T07:44:51;6.73;;;2.63;;
72201;SDS011;60105;54.956;73.412;2023-06-14T07:47:54;8.00;;;2.42;;
72201;SDS011;60105;54.956;73.412;2023-06-14T07:50:57;6.95;;;2.88;;
72201;SDS011;60105;54.956;73.412;2023-06-14T07:53:59;7.47;;;3.30;;
72201;SDS011;60105;54.956;73.412;2023-06-14T07:57:04;6.45;;;2.97;;
72201;SDS011;60105;54.956;73.412;2023-06-14T08:00:07;5.70;;;2.97;;
72201;SDS011;60105;54.956;73.412;2023-06-14T08:03:13;5.77;;;2.70;;
72201;SDS011;60105;54.956;73.412;2023-06-14T08:06:50;6.00;;;2.92;;
72201;SDS011;60105;54.956;73.412;2023-06-14T08:09:51;9.67;;;3.30;;
72201;SDS011;60105;54.956;73.412;2023-06-14T08:12:52;7.65;;;3.40;;
72201;SDS011;60105;54.956;73.412;2023-06-14T08:15:53;9.07;;;2.73;;
72201;SDS011;60105;54.956;73.412;2023-06-14T08:18:56;7.27;;;3.03;;
72201;SDS011;60105;54.956;73.412;2023-06-14T08:21:57;9.50;;;3.40;;
72201;SDS011;60105;54.956;73.412;2023-06-14T08:24:59;14.32;;;3.60;;
72201;SDS011;60105;54.956;73.412;2023-06-14T08:28:03;5.57;;;2.90;;
72201;SDS011;60105;54.956;73.412;2023-06-14T08:31:04;7.20;;;3.27;;
72201;SDS011;60105;54.956;73.412;2023-06-14T08:34:05;6.53;;;2.70;;
72201;SDS011;60105;54.956;73.412;2023-06-14T08:37:06;11.43;;;3.22;;
72201;SDS011;60105;54.956;73.412;2023-06-14T08:40:19;5.43;;;3.03;;
72201;SDS011;60105;54.956;73.412;2023-06-14T08:43:22;9.07;;;2.97;;
72201;SDS011;60105;54.956;73.412;2023-06-14T08:46:49;7.13;;;3.25;;
72201;SDS011;60105;54.956;73.412;2023-06-14T08:49:53;7.20;;;3.20;;
72201;SDS011;60105;54.956;73.412;2023-06-14T08:52:59;7.17;;;2.80;;
72201;SDS011;60105;54.956;73.412;2023-06-14T08:56:03;5.20;;;2.63;;
72201;SDS011;60105;54.956;73.412;2023-06-14T08:59:06;11.77;;;3.03;;
72201;SDS011;60105;54.956;73.412;2023-06-14T09:02:09;7.53;;;3.25;;
72201;SDS011;60105;54.956;73.412;2023-06-14T09:05:15;9.10;;;3.38;;
72201;SDS011;60105;54.956;73.412;2023-06-14T09:08:18;6.73;;;2.87;;
72201;SDS011;60105;54.956;73.412;2023-06-14T09:11:50;7.40;;;2.35;;
72201;SDS011;60105;54.956;73.412;2023-06-14T09:14:51;9.65;;;2.95;;
72201;SDS011;60105;54.956;73.412;2023-06-14T09:17:53;10.23;;;2.97;;
72201;SDS011;60105;54.956;73.412;2023-06-14T09:20:54;7.03;;;2.88;;
72201;SDS011;60105;54.956;73.412;2023-06-14T09:23:56;7.35;;;2.65;;
72201;SDS011;60105;54.956;73.412;2023-06-14T09:26:58;5.60;;;2.73;;
72201;SDS011;60105;54.956;73.412;2023-06-14T09:29:59;6.18;;;2.92;;
72201;SDS011;60105;54.956;73.412;2023-06-14T09:33:01;6.23;;;2.87;;
72201;SDS011;60105;54.956;73.412;2023-06-14T09:36:03;7.65;;;2.65;;
72201;SDS011;60105;54.956;73.412;2023-06-14T09:39:05;7.28;;;3.25;;
72201;SDS011;60105;54.956;73.412;2023-06-14T09:42:16;6.90;;;2.77;;
72201;SDS011;60105;54.956;73.412;2023-06-14T09:45:21;5.22;;;2.90;;
72201;SDS011;60105;54.956;73.412;2023-06-14T09:48:23;7.77;;;2.97;;
72201;SDS011;60105;54.956;73.412;2023-06-14T09:51:50;4.40;;;2.10;;
72201;SDS011;60105;54.956;73.412;2023-06-14T09:54:54;6.28;;;2.78;;
72201;SDS011;60105;54.956;73.412;2023-06-14T09:57:56;5.93;;;3.23;;
72201;SDS011;60105;54.956;73.412;2023-06-14T10:01:00;5.22;;;3.03;;
72201;SDS011;60105;54.956;73.412;2023-06-14T10:04:06;6.93;;;3.13;;
72201;SDS011;60105;54.956;73.412;2023-06-14T10:07:08;5.50;;;3.00;;
72201;SDS011;60105;54.956;73.412;2023-06-14T10:10:10;6.57;;;3.30;;
72201;SDS011;60105;54.956;73.412;2023-06-14T10:13:12;4.10;;;2.50;;
72201;SDS011;60105;54.956;73.412;2023-06-14T10:20:10;8.77;;;3.10;;
72201;SDS011;60105;54.956;73.412;2023-06-14T10:23:21;7.60;;;3.20;;
72201;SDS011;60105;54.956;73.412;2023-06-14T10:26:25;8.00;;;3.10;;
72201;SDS011;60105;54.956;73.412;2023-06-14T10:29:27;5.43;;;2.78;;
72201;SDS011;60105;54.956;73.412;2023-06-14T10:32:33;6.97;;;2.60;;
72201;SDS011;60105;54.956;73.412;2023-06-14T10:35:34;7.33;;;4.13;;
72201;SDS011;60105;54.956;73.412;2023-06-14T10:38:38;7.90;;;4.15;;
72201;SDS011;60105;54.956;73.412;2023-06-14T10:44:58;6.63;;;3.35;;
72201;SDS011;60105;54.956;73.412;2023-06-14T10:48:07;5.28;;;2.60;;
72201;SDS011;60105;54.956;73.412;2023-06-14T10:54:56;6.85;;;3.47;;
72201;SDS011;60105;54.956;73.412;2023-06-14T10:57:57;7.17;;;2.80;;
72201;SDS011;60105;54.956;73.412;2023-06-14T11:00:59;6.47;;;3.00;;
72201;SDS011;60105;54.956;73.412;2023-06-14T11:04:06;6.10;;;2.83;;
72201;SDS011;60105;54.956;73.412;2023-06-14T11:10:38;11.30;;;3.67;;
72201;SDS011;60105;54.956;73.412;2023-06-14T11:13:50;5.93;;;3.50;;
72201;SDS011;60105;54.956;73.412;2023-06-14T11:16:52;5.90;;;2.35;;
72201;SDS011;60105;54.956;73.412;2023-06-14T11:20:12;7.38;;;2.85;;
72201;SDS011;60105;54.956;73.412;2023-06-14T11:23:16;7.67;;;4.90;;
72201;SDS011;60105;54.956;73.412;2023-06-14T11:26:27;8.85;;;3.63;;
72201;SDS011;60105;54.956;73.412;2023-06-14T11:29:30;5.93;;;3.60;;
72201;SDS011;60105;54.956;73.412;2023-06-14T11:32:32;6.03;;;3.27;;
72201;SDS011;60105;54.956;73.412;2023-06-14T11:35:33;6.22;;;3.35;;
72201;SDS011;60105;54.956;73.412;2023-06-14T11:38:35;6.60;;;4.30;;
72201;SDS011;60105;54.956;73.412;2023-06-14T11:44:50;7.28;;;3.63;;
72201;SDS011;60105;54.956;73.412;2023-06-14T11:47:53;6.03;;;3.63;;
72201;SDS011;60105;54.956;73.412;2023-06-14T11:50:57;8.23;;;3.65;;
72201;SDS011;60105;54.956;73.412;2023-06-14T11:53:58;6.40;;;4.00;;
72201;SDS011;60105;54.956;73.412;2023-06-14T11:57:02;11.63;;;5.87;;
72201;SDS011;60105;54.956;73.412;2023-06-14T12:00:04;9.23;;;3.72;;
72201;SDS011;60105;54.956;73.412;2023-06-14T12:03:12;9.63;;;3.20;;
72201;SDS011;60105;54.956;73.412;2023-06-14T12:06:49;6.15;;;3.55;;
72201;SDS011;60105;54.956;73.412;2023-06-14T12:13:03;8.05;;;3.70;;
72201;SDS011;60105;54.956;73.412;2023-06-14T12:16:04;8.77;;;3.07;;
72201;SDS011;60105;54.956;73.412;2023-06-14T12:19:15;8.70;;;3.55;;
72201;SDS011;60105;54.956;73.412;2023-06-14T12:22:17;7.13;;;3.67;;
72201;SDS011;60105;54.956;73.412;2023-06-14T12:25:26;7.68;;;3.58;;
72201;SDS011;60105;54.956;73.412;2023-06-14T12:28:39;7.63;;;3.40;;
72201;SDS011;60105;54.956;73.412;2023-06-14T12:34:50;7.13;;;3.08;;
72201;SDS011;60105;54.956;73.412;2023-06-14T12:37:52;9.80;;;3.73;;
72201;SDS011;60105;54.956;73.412;2023-06-14T12:40:53;9.98;;;5.30;;
72201;SDS011;60105;54.956;73.412;2023-06-14T12:43:55;9.55;;;5.07;;
72201;SDS011;60105;54.956;73.412;2023-06-14T12:46:58;13.55;;;5.15;;
72201;SDS011;60105;54.956;73.412;2023-06-14T12:50:00;16.57;;;10.00;;
72201;SDS011;60105;54.956;73.412;2023-06-14T12:53:01;12.02;;;8.20;;
72201;SDS011;60105;54.956;73.412;2023-06-14T12:56:03;10.52;;;5.30;;
72201;SDS011;60105;54.956;73.412;2023-06-14T12:59:04;10.47;;;3.97;;
72201;SDS011;60105;54.956;73.412;2023-06-14T13:02:17;11.15;;;6.85;;
72201;SDS011;60105;54.956;73.412;2023-06-14T13:05:19;10.25;;;5.43;;
72201;SDS011;60105;54.956;73.412;2023-06-14T13:08:20;11.52;;;6.60;;
72201;SDS011;60105;54.956;73.412;2023-06-14T13:11:49;8.30;;;4.43;;
72201;SDS011;60105;54.956;73.412;2023-06-14T13:14:51;18.63;;;8.82;;
72201;SDS011;60105;54.956;73.412;2023-06-14T13:17:52;13.67;;;8.50;;
72201;SDS011;60105;54.956;73.412;2023-06-14T13:20:54;12.52;;;8.27;;
72201;SDS011;60105;54.956;73.412;2023-06-14T13:23:56;10.45;;;6.32;;
72201;SDS011;60105;54.956;73.412;2023-06-14T13:26:58;9.43;;;5.50;;
72201;SDS011;60105;54.956;73.412;2023-06-14T13:29:59;9.80;;;5.40;;
72201;SDS011;60105;54.956;73.412;2023-06-14T13:33:00;10.77;;;5.95;;
72201;SDS011;60105;54.956;73.412;2023-06-14T13:36:02;10.43;;;4.93;;
72201;SDS011;60105;54.956;73.412;2023-06-14T13:39:04;10.27;;;4.57;;
72201;SDS011;60105;54.956;73.412;2023-06-14T13:42:05;12.00;;;5.55;;
72201;SDS011;60105;54.956;73.412;2023-06-14T13:45:08;10.98;;;5.03;;
72201;SDS011;60105;54.956;73.412;2023-06-14T13:48:11;9.07;;;4.87;;
72201;SDS011;60105;54.956;73.412;2023-06-14T13:51:49;12.38;;;4.85;;
72201;SDS011;60105;54.956;73.412;2023-06-14T13:54:51;11.88;;;4.32;;
72201;SDS011;60105;54.956;73.412;2023-06-14T13:57:53;8.90;;;4.30;;
72201;SDS011;60105;54.956;73.412;2023-06-14T14:00:54;7.97;;;4.50;;
72201;SDS011;60105;54.956;73.412;2023-06-14T14:03:55;8.07;;;4.40;;
72201;SDS011;60105;54.956;73.412;2023-06-14T14:06:57;11.73;;;4.60;;
72201;SDS011;60105;54.956;73.412;2023-06-14T14:09:58;11.05;;;4.40;;
72201;SDS011;60105;54.956;73.412;2023-06-14T14:12:59;10.10;;;4.80;;
72201;SDS011;60105;54.956;73.412;2023-06-14T14:16:02;9.48;;;4.03;;
72201;SDS011;60105;54.956;73.412;2023-06-14T14:19:04;9.83;;;4.93;;
72201;SDS011;60105;54.956;73.412;2023-06-14T14:22:07;7.77;;;3.90;;
72201;SDS011;60105;54.956;73.412;2023-06-14T14:25:08;11.73;;;3.85;;
72201;SDS011;60105;54.956;73.412;2023-06-14T14:28:12;7.05;;;3.13;;
72201;SDS011;60105;54.956;73.412;2023-06-14T14:31:49;8.80;;;4.28;;
72201;SDS011;60105;54.956;73.412;2023-06-14T14:34:51;8.25;;;4.03;;
72201;SDS011;60105;54.956;73.412;2023-06-14T14:37:52;6.77;;;4.23;;
72201;SDS011;60105;54.956;73.412;2023-06-14T14:40:54;8.18;;;4.15;;
72201;SDS011;60105;54.956;73.412;2023-06-14T14:43:55;9.95;;;4.03;;
72201;SDS011;60105;54.956;73.412;2023-06-14T14:46:57;13.30;;;4.10;;
72201;SDS011;60105;54.956;73.412;2023-06-14T14:49:58;10.07;;;4.00;;
72201;SDS011;60105;54.956;73.412;2023-06-14T14:53:00;13.17;;;4.00;;
72201;SDS011;60105;54.956;73.412;2023-06-14T14:56:01;11.85;;;4.00;;
72201;SDS011;60105;54.956;73.412;2023-06-14T14:59:03;9.65;;;4.43;;
72201;SDS011;60105;54.956;73.412;2023-06-14T15:02:04;7.53;;;4.13;;
72201;SDS011;60105;54.956;73.412;2023-06-14T15:05:06;11.48;;;4.40;;
72201;SDS011;60105;54.956;73.412;2023-06-14T15:08:08;9.10;;;4.33;;
72201;SDS011;60105;54.956;73.412;2023-06-14T15:11:48;7.10;;;4.45;;
72201;SDS011;60105;54.956;73.412;2023-06-14T15:14:50;9.45;;;4.50;;
72201;SDS011;60105;54.956;73.412;2023-06-14T15:17:55;16.50;;;4.80;;
72201;SDS011;60105;54.956;73.412;2023-06-14T15:20:56;17.38;;;4.15;;
72201;SDS011;60105;54.956;73.412;2023-06-14T15:23:57;10.82;;;4.60;;
72201;SDS011;60105;54.956;73.412;2023-06-14T15:26:59;13.65;;;4.57;;
72201;SDS011;60105;54.956;73.412;2023-06-14T15:30:00;17.50;;;5.07;;
72201;SDS011;60105;54.956;73.412;2023-06-14T15:33:04;12.73;;;4.87;;
72201;SDS011;60105;54.956;73.412;2023-06-14T15:36:49;14.44;;;4.60;;
72201;SDS011;60105;54.956;73.412;2023-06-14T15:39:51;17.05;;;5.10;;
72201;SDS011;60105;54.956;73.412;2023-06-14T15:42:52;12.10;;;5.55;;
72201;SDS011;60105;54.956;73.412;2023-06-14T15:45:53;13.60;;;5.23;;
72201;SDS011;60105;54.956;73.412;2023-06-14T15:48:55;21.33;;;5.80;;
72201;SDS011;60105;54.956;73.412;2023-06-14T15:51:56;14.95;;;5.40;;
72201;SDS011;60105;54.956;73.412;2023-06-14T15:54:58;17.58;;;6.55;;
72201;SDS011;60105;54.956;73.412;2023-06-14T15:57:59;14.95;;;6.25;;
72201;SDS011;60105;54.956;73.412;2023-06-14T16:01:00;12.30;;;5.30;;
72201;SDS011;60105;54.956;73.412;2023-06-14T16:04:02;11.05;;;6.00;;
72201;SDS011;60105;54.956;73.412;2023-06-14T16:07:03;15.57;;;7.57;;
72201;SDS011;60105;54.956;73.412;2023-06-14T16:10:05;16.10;;;7.30;;
72201;SDS011;60105;54.956;73.412;2023-06-14T16:13:07;16.93;;;8.07;;
72201;SDS011;60105;54.956;73.412;2023-06-14T16:16:49;20.53;;;8.75;;
72201;SDS011;60105;54.956;73.412;2023-06-14T16:19:51;34.42;;;11.10;;
72201;SDS011;60105;54.956;73.412;2023-06-14T16:22:52;19.67;;;10.53;;
72201;SDS011;60105;54.956;73.412;2023-06-14T16:25:53;20.77;;;9.98;;
72201;SDS011;60105;54.956;73.412;2023-06-14T16:28:55;24.65;;;10.05;;
72201;SDS011;60105;54.956;73.412;2023-06-14T16:31:57;15.93;;;10.17;;
72201;SDS011;60105;54.956;73.412;2023-06-14T16:34:58;26.85;;;11.82;;
72201;SDS011;60105;54.956;73.412;2023-06-14T16:37:59;21.93;;;11.13;;
72201;SDS011;60105;54.956;73.412;2023-06-14T16:41:00;26.23;;;10.13;;
72201;SDS011;60105;54.956;73.412;2023-06-14T16:44:02;20.70;;;10.05;;
72201;SDS011;60105;54.956;73.412;2023-06-14T16:47:05;26.95;;;9.10;;
72201;SDS011;60105;54.956;73.412;2023-06-14T16:50:09;18.23;;;9.17;;
72201;SDS011;60105;54.956;73.412;2023-06-14T16:53:10;26.27;;;9.60;;
72201;SDS011;60105;54.956;73.412;2023-06-14T16:56:21;23.67;;;9.55;;
72201;SDS011;60105;54.956;73.412;2023-06-14T16:59:27;21.48;;;9.30;;
72201;SDS011;60105;54.956;73.412;2023-06-14T17:02:28;18.33;;;9.00;;
72201;SDS011;60105;54.956;73.412;2023-06-14T17:05:30;19.63;;;8.17;;
72201;SDS011;60105;54.956;73.412;2023-06-14T17:08:32;19.35;;;9.00;;
72201;SDS011;60105;54.956;73.412;2023-06-14T17:14:50;17.92;;;7.63;;
72201;SDS011;60105;54.956;73.412;2023-06-14T17:17:52;18.00;;;8.20;;
72201;SDS011;60105;54.956;73.412;2023-06-14T17:20:53;14.63;;;7.72;;
72201;SDS011;60105;54.956;73.412;2023-06-14T17:23:54;14.87;;;7.43;;
72201;SDS011;60105;54.956;73.412;2023-06-14T17:26:56;16.50;;;9.20;;
72201;SDS011;60105;54.956;73.412;2023-06-14T17:29:57;14.07;;;7.57;;
72201;SDS011;60105;54.956;73.412;2023-06-14T17:32:59;25.27;;;8.70;;
72201;SDS011;60105;54.956;73.412;2023-06-14T17:36:00;24.35;;;8.43;;
72201;SDS011;60105;54.956;73.412;2023-06-14T17:39:02;16.63;;;8.03;;
72201;SDS011;60105;54.956;73.412;2023-06-14T17:42:03;18.53;;;7.33;;
72201;SDS011;60105;54.956;73.412;2023-06-14T17:45:05;19.48;;;8.38;;
72201;SDS011;60105;54.956;73.412;2023-06-14T17:48:07;18.70;;;7.60;;
72201;SDS011;60105;54.956;73.412;2023-06-14T17:51:49;14.48;;;6.80;;
72201;SDS011;60105;54.956;73.412;2023-06-14T17:54:51;16.70;;;6.90;;
72201;SDS011;60105;54.956;73.412;2023-06-14T17:57:52;14.47;;;7.10;;
72201;SDS011;60105;54.956;73.412;2023-06-14T18:00:53;16.02;;;6.85;;
72201;SDS011;60105;54.956;73.412;2023-06-14T18:03:56;14.40;;;6.83;;
72201;SDS011;60105;54.956;73.412;2023-06-14T18:06:57;11.67;;;6.07;;
72201;SDS011;60105;54.956;73.412;2023-06-14T18:10:00;15.10;;;6.90;;
72201;SDS011;60105;54.956;73.412;2023-06-14T18:13:02;13.95;;;6.28;;
72201;SDS011;60105;54.956;73.412;2023-06-14T18:16:04;15.77;;;6.72;;
72201;SDS011;60105;54.956;73.412;2023-06-14T18:19:09;14.70;;;7.43;;
72201;SDS011;60105;54.956;73.412;2023-06-14T18:22:10;17.27;;;7.03;;
72201;SDS011;60105;54.956;73.412;2023-06-14T18:25:12;13.63;;;6.85;;
72201;SDS011;60105;54.956;73.412;2023-06-14T18:28:14;14.93;;;6.50;;
72201;SDS011;60105;54.956;73.412;2023-06-14T18:31:49;12.75;;;6.93;;
72201;SDS011;60105;54.956;73.412;2023-06-14T18:34:51;14.95;;;6.55;;
72201;SDS011;60105;54.956;73.412;2023-06-14T18:37:52;18.27;;;7.13;;
72201;SDS011;60105;54.956;73.412;2023-06-14T18:40:55;17.63;;;6.30;;
72201;SDS011;60105;54.956;73.412;2023-06-14T18:43:56;13.87;;;6.07;;
72201;SDS011;60105;54.956;73.412;2023-06-14T18:46:58;10.68;;;5.57;;
72201;SDS011;60105;54.956;73.412;2023-06-14T18:49:59;13.20;;;5.68;;
72201;SDS011;60105;54.956;73.412;2023-06-14T18:53:01;14.50;;;5.90;;
72201;SDS011;60105;54.956;73.412;2023-06-14T18:56:02;11.95;;;5.00;;